Terminal Aerodrome Forecast
Issued by NWS

Home | Current Version | Previous Version | Text Only | Print | Product List | Glossary On
Versions: 1 2 3 4 5 6 7 8 9 10 11 12 13 14 15 16 17 18 19 20 21
121
FTUS41 KBTV 150535
TAFSLK
TAF
KSLK 150535Z 1506/1606 VRB03KT P6SM FEW200
     FM151700 21005KT P6SM BKN070
     FM160200 21005KT P6SM VCSH OVC045=

USA.gov is the U.S. government's official web portal to all federal, state and local government web resources and services.